Newnan, GA

12:43 AM EDT on September 22, 2014 (GMT -0400)
RAWS NEWNAN GA US | Change Station
CLOSE
Current Station
Personal Weather Station
Location: Newnan, GA
Elevation: 873 ft
Nearby Weather Stations

Elev 873 ft 33.37 °N, 84.86 °W | Updated 41 minutes ago

Clear
Clear
69 °F
Feels Like 69 °F
N
2
Wind Variable Wind from SSW
Gusts 5.0 mph

Today
High -- | Low -- °F
--% Chance of Precip.
Yesterday
High -- | Low -- °F
Precip. -- in
7:27 AM 7:36 PM
Waning Crescent, 4% visible
Pressure 29.99 in
Visibility 10.0 miles
Clouds Scattered Clouds 10000 ft
Dew Point 64 °F
Humidity 84%
Rainfall 0.00 in
Snow Depth Not available.
UV 0 out of 12
Pollen 8.30 out of 12
Ozone Good
PM2.5 Moderate
Flu Activity Not available.
METAR KFFC 220353Z AUTO 00000KT 10SM SCT100 20/18 A3000 RMK AO2 SLP154 T02000183

More Conditions Fewer Conditions

Pressure 29.99 in
Visibility 10.0 miles
Clouds Scattered Clouds 10000 ft
Dew Point 64 °F
Humidity 84%
Rainfall 0.00 in
Snow Depth Not available.
UV 0 out of 12
Pollen 8.30 out of 12
Ozone Good
PM2.5 Moderate
Flu Activity Not available.
METAR KFFC 220353Z AUTO 00000KT 10SM SCT100 20/18 A3000 RMK AO2 SLP154 T02000183

More Conditions Fewer Conditions

10-Day Weather Forecast

Almanac

Astronomy

Sep. 22, 2014 Rise Set
Actual Time 7:27 AM EDT 7:36 PM EDT
Civil Twilight 7:02 AM EDT 8:00 PM EDT
Nautical Twilight 6:33 AM EDT 8:29 PM EDT
Astronomical Twilight 6:04 AM EDT 8:58 PM EDT
Moon 5:58 AM EDT 6:41 PM EDT
Length of Visible Light 12h 58m
Length of Day
12h 08m
Tomorrow will be 2m 3s shorter.
Waning Crescent, 4% of the Moon is Illuminated
Today
Waning Crescent
Sep 24
New
Oct 1
First Quarter
Oct 8
Full
Oct 15
Last Quarter

Today's Extremes

State Highs State Lows

Community

WunderPhotos

Upload Photos

1,755,391 photos uploaded!

Nearby

Air Quality

  Air Quality AQ Index Pollutant
Yesterday Good
PM10
Yesterday Good
OZONE
Current Moderate
PM2.5
Current Good
OZONE
Sunday Moderate
PM2.5
Sunday Good
OZONE
Monday Good
OZONE
Monday Good
PM2.5

Snow Depth

Station Depth Elevation
No new snow has been reported.

Earthquake Activity

City Distance Mag. Time & Date
No recent earthquake activity has been reported nearby.
Minimum magnitude displayed is 2.5.

Coastal Water Temperatures

Place Temperature
No Stations Reporting

Nearby Weather Stations